Ana Sayfa
METAR-TAF:

METAR-TAF

Havaalanları :

Longyearbyen, Norveç

Enlem: 78-15N, Boylam: 015-28E, yükseklik: 2 m

Güncel hava durumu gözlemi

Rapor saat 00:50 UTC de 20 dakika önce yapıldı.
Rüzgar doğu/güneydoğudan 4 kt, doğu ve güney/güneydoğu arasında değişken
Sıcaklık -2°C
Nem 80%
Basınç 1019 hPa
Görüş mesafesi 10 km veya daha fazla
3500 ft yükseklikte az bulutlu
6000 ft yükseklikte parçalı çok bulutlu

METAR: ENSB 180050Z 12004KT 090V150 9999 FEW035 BKN060 M02/M05 Q1019 RMK WIND 1400FT 07006KT

Saat: 03:10 (01:10 UTC)

Tahmin

Ayın 18'si saat 00 UTC'den ayın 18'si saat 24 UTC'ye kadar geçerli Tahmin
Rüzgar değişken yönden 8 kt
Görüş mesafesi 10 km veya daha fazla
1000 ft yükseklikte az bulutlu
3000 ft yükseklikte parçalı çok bulutlu
Geçici
ayın 18'si saat 12 UTC'den ayın 18'si saat 24 UTC'ye kadar
Rüzgar kuzeydan 10 kt
Görüş mesafesi: 4000 m
1400 ft yükseklikte
hafif kar sağanakları

TAF: ENSB 1800/1824 VRB08KT 9999 FEW010 BKN030 TEMPO 1812/1824 35010KT 4000 -SHSN VV014

4.000'den fazla havaalanı için hava durumu gözlemleri ve tahminleri (METAR ve TAF raporları).

Kullanılabilir istasyonlar harita üzerinde sarı ve kırmızı noktalarla gösterilir.

İstasyonun adını görmek için fareyi noktanın üzerinde gezdirin.

Sonrasında hava gözlem ve tahminlerini görmek için tıklayın.

Haritayı değiştirmek için: yaklaştırmak için siyah artı işaretli yeşil düğmeye ve uzaklaştırmak için de eksi işaretli düğmeye hızla tıklayın; bitişik haritalar için yeşil okları kullanın.


METAR-TAF: